DFW weather

Dallas Fort Worth International Airport
Dallas-Fort Worth, Texas, United States

Public forecast

Using degrees Fahrenheit for public forecast. Weather courtesy of forecast.io.

METAR (pilot weather report)

Retrieved 2017/08/16 19:53 UTC (1 hour ago):

KDFW 161953Z 18012KT 10SM FEW040 BKN150 BKN160 33/23 A2989 RMK AO2 SLP111 T03280233

TAF (pilot weather forecast)

Retrieved 2017/08/16 18:24 UTC (3 hours ago):

TAF KDFW 161721Z 1618/1724 19015KT P6SM SCT030 BKN150 FM161900 20015KT P6SM VCSH SCT030 BKN080 BKN150 FM162300 19015KT P6SM SCT030 SCT080 BKN150 FM170100 17014KT P6SM SCT060 SCT250 FM171300 20011KT P6SM VCSH SCT060 BKN090